Time;durP1;ratioP1;P1;durP2;ratioP2;P2;SDS_P1;SDS_P2;PMS_P1;PMS_P2;Temp;Humidity;BMP_temperature;BMP_pressure;BME280_temperature;BME280_humidity;BME280_pressure;Samples;Min_cycle;Max_cycle;Signal;HPM_P1;HPM_P2
2023/10/05 00:00:48;;;;;;;;;;;;;;;28.56;42.37;95112.03;4943501;29;9099;-63
2023/10/05 00:03:29;;;;;;;;;;;;;;;28.54;42.60;95103.50;4941844;28;9113;-63
2023/10/05 00:06:15;;;;;;;;;;;;;;;28.54;41.84;95105.50;4921884;28;7024;-63
2023/10/05 00:08:47;;;;;;;;;;;;;;;28.53;41.52;95101.25;4948676;28;9108;-63
2023/10/05 00:11:29;;;;;;;;;;;;;;;28.49;42.61;95101.53;4951983;28;7421;-63
2023/10/05 00:14:07;;;;;;;;;;;;;;;28.49;42.12;95118.13;4931328;29;7233;-63
2023/10/05 00:16:48;;;;;;;;;;;;;;;28.48;41.96;95108.31;4952942;28;9171;-63
2023/10/05 00:19:16;;;;;;;;;;;;;;;28.47;42.59;95114.38;4957040;28;8945;-63
2023/10/05 00:21:58;;;;;;;;;;;;;;;28.46;42.35;95113.63;5022928;28;7094;-63
2023/10/05 00:24:31;;;;;;;;;;;;;;;28.45;42.27;95117.63;5087021;28;9122;-63
2023/10/05 00:26:59;;;;;;;;;;;;;;;28.49;42.18;95129.22;5095571;28;7115;-63
2023/10/05 00:29:46;;;;;;;;;;;;;;;28.50;41.71;95133.47;5066599;28;7360;-63
2023/10/05 00:32:34;;;;;;;;;;;;;;;28.48;42.12;95126.94;5045879;28;7227;-63
2023/10/05 00:35:16;;;;;;;;;;;;;;;28.45;41.98;95120.41;5060358;28;8998;-63
2023/10/05 00:37:45;;;;;;;;;;;;;;;28.48;41.78;95119.38;5065767;28;7705;-63
2023/10/05 00:43:28;;;;;;;;;;;;;;;28.47;42.26;95122.69;5077496;28;8764;-63
2023/10/05 00:45:58;;;;;;;;;;;;;;;28.46;41.95;95126.69;5035657;28;8771;-63
2023/10/05 00:48:34;;;;;;;;;;;;;;;28.46;42.13;95130.22;4997237;28;6860;-63
2023/10/05 00:51:10;;;;;;;;;;;;;;;28.49;41.63;95125.69;5012732;28;8927;-63
2023/10/05 00:53:41;;;;;;;;;;;;;;;28.46;42.36;95118.41;5032641;28;9193;-63
2023/10/05 00:56:23;;;;;;;;;;;;;;;28.44;42.28;95124.44;5040712;28;8795;-63
2023/10/05 00:58:54;;;;;;;;;;;;;;;28.44;42.43;95129.22;5011870;28;7223;-63
2023/10/05 01:02:21;;;;;;;;;;;;;;;28.42;41.90;95126.97;5033571;28;7237;-63
2023/10/05 01:04:42;;;;;;;;;;;;;;;28.43;42.18;95122.19;5026706;28;7243;-61
2023/10/05 01:07:56;;;;;;;;;;;;;;;28.43;42.22;95131.22;5026562;28;7250;-61
2023/10/05 01:13:34;;;;;;;;;;;;;;;28.40;42.46;95143.34;5032928;28;7269;-61
2023/10/05 01:16:15;;;;;;;;;;;;;;;28.36;42.03;95143.59;4947688;28;7062;-61
2023/10/05 01:18:42;;;;;;;;;;;;;;;28.40;42.53;95140.56;4972789;28;9157;-61
2023/10/05 01:21:09;;;;;;;;;;;;;;;28.38;42.08;95135.53;4976586;28;9424;-61
2023/10/05 01:23:48;;;;;;;;;;;;;;;28.40;42.05;95126.75;4973116;28;8730;-61
2023/10/05 01:26:14;;;;;;;;;;;;;;;28.39;42.17;95125.22;4954902;28;7079;-61
2023/10/05 01:28:44;;;;;;;;;;;;;;;28.36;41.79;95121.47;4965505;28;7022;-61
2023/10/05 01:31:28;;;;;;;;;;;;;;;28.35;42.21;95119.97;4978957;28;7150;-61
2023/10/05 01:33:55;;;;;;;;;;;;;;;28.37;42.54;95122.22;4970164;28;7295;-61
2023/10/05 01:36:23;;;;;;;;;;;;;;;28.35;42.74;95124.75;4957932;28;7260;-60
2023/10/05 01:38:54;;;;;;;;;;;;;;;28.34;41.78;95123.22;4971529;28;9076;-61
2023/10/05 01:41:23;;;;;;;;;;;;;;;28.33;41.91;95122.50;4964532;28;6992;-61
2023/10/05 01:43:52;;;;;;;;;;;;;;;28.34;42.16;95124.00;4958649;28;9185;-61
2023/10/05 01:46:21;;;;;;;;;;;;;;;28.35;42.25;95124.75;4974170;28;9644;-61
2023/10/05 01:48:47;;;;;;;;;;;;;;;28.31;42.54;95122.25;4956478;28;6990;-61
2023/10/05 01:51:40;;;;;;;;;;;;;;;28.32;42.29;95111.94;5007247;28;7243;-61
2023/10/05 01:54:16;;;;;;;;;;;;;;;28.32;42.57;95114.69;5000120;28;7070;-61
2023/10/05 01:57:08;;;;;;;;;;;;;;;28.32;42.37;95114.69;5006270;28;7274;-61
2023/10/05 01:59:41;;;;;;;;;;;;;;;28.33;42.50;95110.69;4990993;28;7377;-61
2023/10/05 02:02:19;;;;;;;;;;;;;;;28.34;41.93;95106.63;4990825;28;9434;-61
2023/10/05 02:04:49;;;;;;;;;;;;;;;28.33;42.08;95099.63;4997729;28;9638;-60
2023/10/05 02:07:27;;;;;;;;;;;;;;;28.31;42.03;95111.19;4996789;28;7132;-61
2023/10/05 02:10:09;;;;;;;;;;;;;;;28.31;41.73;95097.38;4998618;28;7054;-61
2023/10/05 02:12:36;;;;;;;;;;;;;;;28.31;42.49;95102.91;5010246;28;7342;-61
2023/10/05 02:15:13;;;;;;;;;;;;;;;28.30;41.82;95095.09;5009275;28;8740;-60
2023/10/05 02:17:59;;;;;;;;;;;;;;;28.28;42.16;95083.78;4976353;28;8752;-60
2023/10/05 02:22:59;;;;;;;;;;;;;;;28.30;41.68;95084.78;5017197;28;9238;-60
2023/10/05 02:25:33;;;;;;;;;;;;;;;28.31;41.60;95082.78;5002539;28;6982;-60
2023/10/05 02:28:31;;;;;;;;;;;;;;;28.31;42.54;95080.00;5000380;28;6998;-60
2023/10/05 02:30:59;;;;;;;;;;;;;;;28.30;42.53;95072.97;5026281;28;7057;-60
2023/10/05 02:33:37;;;;;;;;;;;;;;;28.30;41.89;95064.66;5071934;28;7245;-60
2023/10/05 02:36:26;;;;;;;;;;;;;;;28.29;41.68;95057.63;5053577;28;7402;-60
2023/10/05 02:38:53;;;;;;;;;;;;;;;28.28;41.96;95053.34;5071162;28;7243;-61
2023/10/05 02:41:39;;;;;;;;;;;;;;;28.29;42.53;95050.09;5052797;28;8953;-60
2023/10/05 02:46:52;;;;;;;;;;;;;;;28.29;41.88;95061.16;5009733;28;7246;-60
2023/10/05 02:49:25;;;;;;;;;;;;;;;28.27;41.78;95062.94;5001192;28;7065;-60
2023/10/05 02:51:52;;;;;;;;;;;;;;;28.24;41.84;95064.72;4992708;28;7908;-60
2023/10/05 02:54:31;;;;;;;;;;;;;;;28.27;41.77;95074.00;4982289;28;7435;-60
2023/10/05 02:56:59;;;;;;;;;;;;;;;28.27;42.46;95068.47;4978579;28;7242;-61
2023/10/05 02:59:27;;;;;;;;;;;;;;;28.27;42.21;95060.16;4993775;28;7510;-60
2023/10/05 03:02:00;;;;;;;;;;;;;;;28.26;42.47;95047.59;4979483;28;7178;-60
2023/10/05 03:04:44;;;;;;;;;;;;;;;28.25;42.18;95057.16;5018073;28;8712;-60
2023/10/05 03:07:47;;;;;;;;;;;;;;;28.28;41.60;95067.19;5020627;28;6997;-60
2023/10/05 03:10:26;;;;;;;;;;;;;;;28.26;42.03;95058.66;4912689;29;8728;-60
2023/10/05 03:13:03;;;;;;;;;;;;;;;28.24;41.62;95059.19;4932574;29;8688;-60
2023/10/05 03:15:30;;;;;;;;;;;;;;;28.21;42.00;95051.88;4901468;29;9178;-60
2023/10/05 03:18:15;;;;;;;;;;;;;;;28.24;41.96;95050.88;4931201;29;7134;-61
2023/10/05 03:21:18;;;;;;;;;;;;;;;28.24;41.75;95052.88;4929116;29;7730;-60
2023/10/05 03:23:56;;;;;;;;;;;;;;;28.21;41.87;95051.88;4951170;28;6945;-56
2023/10/05 03:26:33;;;;;;;;;;;;;;;28.19;42.35;95059.94;4944780;28;6984;-55
2023/10/05 03:29:14;;;;;;;;;;;;;;;28.19;42.29;95059.19;4956544;28;7146;-55
2023/10/05 03:34:42;;;;;;;;;;;;;;;28.18;42.17;95069.53;4974873;28;7216;-55
2023/10/05 03:37:41;;;;;;;;;;;;;;;28.18;42.11;95066.75;4960105;28;7261;-56
2023/10/05 03:40:19;;;;;;;;;;;;;;;28.18;42.03;95068.78;4934310;28;7138;-55
2023/10/05 03:42:46;;;;;;;;;;;;;;;28.16;42.21;95069.28;4939666;28;7316;-55
2023/10/05 03:46:00;;;;;;;;;;;;;;;28.16;42.10;95063.00;4954913;28;7172;-55
2023/10/05 03:48:39;;;;;;;;;;;;;;;28.14;42.26;95054.47;4873957;29;7216;-55
2023/10/05 03:51:18;;;;;;;;;;;;;;;28.13;42.34;95053.72;4879156;29;9340;-55
2023/10/05 03:53:48;;;;;;;;;;;;;;;28.13;42.42;95055.72;4883777;29;9258;-56
2023/10/05 03:56:18;;;;;;;;;;;;;;;28.14;41.82;95060.00;4888533;29;9725;-56
2023/10/05 03:59:18;;;;;;;;;;;;;;;28.14;41.75;95057.22;4872346;29;7263;-56
2023/10/05 04:01:49;;;;;;;;;;;;;;;28.13;42.07;95055.72;4860940;29;7560;-55
2023/10/05 04:04:28;;;;;;;;;;;;;;;28.10;42.51;95054.00;4861462;29;7003;-56
2023/10/05 04:06:55;;;;;;;;;;;;;;;28.12;42.19;95063.25;4861824;29;6863;-55
2023/10/05 04:09:33;;;;;;;;;;;;;;;28.12;42.31;95063.25;4845917;29;7435;-56
2023/10/05 04:12:10;;;;;;;;;;;;;;;28.11;42.51;95061.75;4837615;29;6989;-55
2023/10/05 04:14:38;;;;;;;;;;;;;;;28.08;41.95;95062.03;4858079;29;7698;-56
2023/10/05 04:17:18;;;;;;;;;;;;;;;28.08;41.97;95062.78;4866189;29;8767;-55
2023/10/05 04:19:53;;;;;;;;;;;;;;;28.07;41.83;95055.75;4888198;29;9461;-56
2023/10/05 04:22:37;;;;;;;;;;;;;;;28.08;41.82;95059.25;4890043;29;7260;-56
2023/10/05 04:25:33;;;;;;;;;;;;;;;28.07;42.69;95061.28;4918463;28;7504;-56
2023/10/05 04:28:31;;;;;;;;;;;;;;;28.07;41.95;95063.28;4981200;28;7314;-55
2023/10/05 04:31:21;;;;;;;;;;;;;;;28.06;42.61;95064.53;4999372;28;7002;-55
2023/10/05 04:33:50;;;;;;;;;;;;;;;28.06;42.27;95061.78;4985554;28;9438;-55
2023/10/05 04:36:54;;;;;;;;;;;;;;;28.05;42.37;95061.06;4995323;28;7331;-55
2023/10/05 04:39:29;;;;;;;;;;;;;;;28.04;42.53;95053.25;4946790;28;7465;-55
2023/10/05 04:42:11;;;;;;;;;;;;;;;28.06;42.55;95053.47;4965291;28;9133;-56
2023/10/05 04:44:46;;;;;;;;;;;;;;;28.06;41.96;95056.25;4955651;28;9087;-56
2023/10/05 04:47:13;;;;;;;;;;;;;;;28.02;42.78;95051.00;4955351;28;9009;-56
2023/10/05 04:49:58;;;;;;;;;;;;;;;28.06;42.13;95070.06;4959475;28;8147;-56
2023/10/05 04:52:50;;;;;;;;;;;;;;;28.05;42.46;95066.59;4965126;28;8687;-55
2023/10/05 04:55:31;;;;;;;;;;;;;;;28.08;42.68;95056.50;4947773;28;9582;-55
2023/10/05 04:58:43;;;;;;;;;;;;;;;28.06;42.30;95064.53;4965489;28;6978;-56
2023/10/05 05:01:29;;;;;;;;;;;;;;;28.05;42.29;95060.28;4945848;28;8763;-56
2023/10/05 05:07:14;;;;;;;;;;;;;;;28.05;42.81;95068.59;4933888;29;8770;-56
2023/10/05 05:09:42;;;;;;;;;;;;;;;28.01;42.69;95063.34;4916775;29;7382;-56
2023/10/05 05:12:24;;;;;;;;;;;;;;;28.02;43.08;95059.28;4908275;29;7169;-56
2023/10/05 05:14:52;;;;;;;;;;;;;;;28.03;42.43;95068.34;4898273;29;7061;-55
2023/10/05 05:17:21;;;;;;;;;;;;;;;28.02;42.56;95091.72;4928588;28;9059;-55
2023/10/05 05:19:51;;;;;;;;;;;;;;;28.01;42.80;95079.94;4930763;28;9337;-55
2023/10/05 05:22:21;;;;;;;;;;;;;;;28.01;42.52;95084.69;4931045;28;7026;-55
2023/10/05 05:25:45;;;;;;;;;;;;;;;28.01;42.62;95090.22;4932829;29;6983;-56
2023/10/05 05:28:23;;;;;;;;;;;;;;;28.01;42.30;95090.22;4890491;29;7448;-55
2023/10/05 05:30:53;;;;;;;;;;;;;;;27.97;42.21;95090.47;4914678;29;8720;-56
2023/10/05 05:33:22;;;;;;;;;;;;;;;28.02;41.98;95094.50;4899942;29;9191;-55
2023/10/05 05:35:49;;;;;;;;;;;;;;;28.02;42.75;95091.72;4897998;29;7264;-55
2023/10/05 05:38:15;;;;;;;;;;;;;;;28.01;42.14;95076.41;4924624;28;7232;-56
2023/10/05 05:40:57;;;;;;;;;;;;;;;27.99;42.32;95078.94;4943000;28;9274;-56
2023/10/05 05:43:33;;;;;;;;;;;;;;;27.97;42.17;95082.19;4958148;28;7571;-62
2023/10/05 05:46:02;;;;;;;;;;;;;;;27.97;41.71;95089.72;4968350;28;7300;-62
2023/10/05 05:48:31;;;;;;;;;;;;;;;27.96;42.09;95090.97;4976241;28;7314;-63
2023/10/05 05:51:06;;;;;;;;;;;;;;;27.96;42.19;95093.75;4991967;28;7415;-63
2023/10/05 05:53:46;;;;;;;;;;;;;;;27.94;41.96;95088.72;4990795;28;7077;-63
2023/10/05 05:56:45;;;;;;;;;;;;;;;27.91;42.07;95086.22;4993054;28;7592;-63
2023/10/05 05:59:22;;;;;;;;;;;;;;;27.93;41.61;95078.16;4966304;28;7430;-63
2023/10/05 06:01:52;;;;;;;;;;;;;;;27.92;41.82;95082.97;4979556;28;7095;-62
2023/10/05 06:04:33;;;;;;;;;;;;;;;27.90;42.04;95076.44;4992632;28;7457;-62
2023/10/05 06:07:14;;;;;;;;;;;;;;;27.91;42.36;95092.50;4992796;28;7013;-62
2023/10/05 06:09:42;;;;;;;;;;;;;;;27.90;42.31;95087.50;5003801;28;9460;-62
2023/10/05 06:12:38;;;;;;;;;;;;;;;27.92;42.08;95087.72;4981447;28;9063;-62
2023/10/05 06:15:04;;;;;;;;;;;;;;;27.91;42.13;95092.50;4992785;28;9389;-62
2023/10/05 06:17:34;;;;;;;;;;;;;;;27.89;41.85;95111.63;4994327;28;7018;-62
2023/10/05 06:20:13;;;;;;;;;;;;;;;27.86;42.01;95112.63;4991312;28;7593;-62
2023/10/05 06:22:43;;;;;;;;;;;;;;;27.84;41.99;95108.88;5004558;28;7412;-62
2023/10/05 06:25:15;;;;;;;;;;;;;;;27.82;42.11;95100.34;4978212;28;6990;-62
2023/10/05 06:28:12;;;;;;;;;;;;;;;27.78;42.05;95094.31;4984699;28;7108;-62
2023/10/05 06:30:42;;;;;;;;;;;;;;;27.78;42.51;95086.00;4941116;28;7189;-62
2023/10/05 06:33:09;;;;;;;;;;;;;;;27.78;42.10;95088.78;4939376;28;6998;-62
2023/10/05 06:36:03;;;;;;;;;;;;;;;27.77;42.07;95081.75;4939158;28;7212;-62
2023/10/05 06:38:56;;;;;;;;;;;;;;;27.77;42.00;95085.28;4928971;28;7456;-62
2023/10/05 06:42:00;;;;;;;;;;;;;;;27.76;42.55;95086.53;4935571;28;7273;-62
2023/10/05 06:44:28;;;;;;;;;;;;;;;27.77;42.10;95079.00;4913630;29;6983;-63
2023/10/05 06:46:55;;;;;;;;;;;;;;;27.75;41.88;95087.81;4913916;29;8743;-63
2023/10/05 06:49:32;;;;;;;;;;;;;;;27.75;42.37;95093.34;4907574;29;7479;-62
2023/10/05 06:52:08;;;;;;;;;;;;;;;27.75;42.73;95095.34;4927030;28;7263;-63
2023/10/05 06:54:35;;;;;;;;;;;;;;;27.75;42.79;95098.09;4959571;28;7168;-60
2023/10/05 06:57:10;;;;;;;;;;;;;;;27.76;42.58;95094.06;4940892;28;7244;-60
2023/10/05 06:59:38;;;;;;;;;;;;;;;27.76;42.80;95105.13;4961764;28;7227;-60
2023/10/05 07:02:05;;;;;;;;;;;;;;;27.75;42.73;95106.41;4963844;28;9027;-60
2023/10/05 07:04:44;;;;;;;;;;;;;;;27.78;43.04;95108.88;4966115;28;7002;-61
2023/10/05 07:07:14;;;;;;;;;;;;;;;27.75;43.56;95109.16;4966737;28;7252;-61
2023/10/05 07:09:49;;;;;;;;;;;;;;;27.80;42.61;95113.91;4981906;28;6976;-61
2023/10/05 07:12:31;;;;;;;;;;;;;;;27.77;43.09;95117.69;4960067;28;7147;-60
2023/10/05 07:14:58;;;;;;;;;;;;;;;27.74;43.18;95122.22;5044374;28;7080;-60
2023/10/05 07:17:28;;;;;;;;;;;;;;;27.74;43.33;95138.06;5035064;28;7198;-60
2023/10/05 07:20:23;;;;;;;;;;;;;;;27.75;43.04;95136.81;5054945;28;7228;-60
2023/10/05 07:22:55;;;;;;;;;;;;;;;27.75;42.93;95132.03;5067092;28;7205;-61
2023/10/05 07:25:23;;;;;;;;;;;;;;;27.75;43.17;95139.56;5071724;28;7163;-60
2023/10/05 07:27:58;;;;;;;;;;;;;;;27.77;43.91;95132.28;5070031;28;9186;-60
2023/10/05 07:30:25;;;;;;;;;;;;;;;27.77;43.30;95137.06;5062075;28;9165;-61
2023/10/05 07:32:57;;;;;;;;;;;;;;;27.77;43.23;95145.34;5042949;28;7137;-61
2023/10/05 07:35:23;;;;;;;;;;;;;;;27.77;43.32;95153.63;5062432;28;7015;-60
2023/10/05 07:37:50;;;;;;;;;;;;;;;27.75;43.02;95139.56;5061263;28;7296;-60
2023/10/05 07:40:16;;;;;;;;;;;;;;;27.79;43.37;95145.59;5072193;28;7233;-60
2023/10/05 07:42:59;;;;;;;;;;;;;;;27.75;43.52;95153.38;5061650;28;8257;-60
2023/10/05 07:45:30;;;;;;;;;;;;;;;27.76;43.48;95158.41;5060410;28;8953;-61
2023/10/05 07:48:06;;;;;;;;;;;;;;;27.75;43.28;95167.97;5045275;28;7255;-61
2023/10/05 07:50:44;;;;;;;;;;;;;;;27.73;43.03;95153.88;5076702;28;7232;-61
2023/10/05 07:53:40;;;;;;;;;;;;;;;27.77;42.81;95156.41;5055917;28;9282;-60
2023/10/05 07:56:21;;;;;;;;;;;;;;;27.77;43.58;95159.91;4984094;28;9195;-60
2023/10/05 07:58:54;;;;;;;;;;;;;;;27.78;43.57;95166.19;5006128;28;7332;-60
2023/10/05 08:01:21;;;;;;;;;;;;;;;27.78;43.63;95163.41;4988477;28;8199;-60
2023/10/05 08:03:57;;;;;;;;;;;;;;;27.77;43.33;95165.44;4977492;28;8793;-60
2023/10/05 08:06:33;;;;;;;;;;;;;;;27.77;43.19;95167.47;4991109;28;7022;-60
2023/10/05 08:09:20;;;;;;;;;;;;;;;27.74;43.21;95166.44;4995218;28;8737;-60
2023/10/05 08:11:51;;;;;;;;;;;;;;;27.75;43.10;95169.97;4993669;28;9296;-61
2023/10/05 08:14:44;;;;;;;;;;;;;;;27.75;43.46;95169.97;4990611;28;9784;-61
2023/10/05 08:17:23;;;;;;;;;;;;;;;27.73;43.53;95161.44;4991300;28;7297;-60
2023/10/05 08:20:00;;;;;;;;;;;;;;;27.70;43.42;95157.66;4985248;28;7424;-61
2023/10/05 08:23:09;;;;;;;;;;;;;;;27.72;43.44;95165.44;4977591;28;7541;-60
2023/10/05 08:25:46;;;;;;;;;;;;;;;27.73;43.43;95170.47;4992954;28;8764;-60
2023/10/05 08:28:13;;;;;;;;;;;;;;;27.72;43.21;95174.50;4986918;28;7011;-60
2023/10/05 08:31:05;;;;;;;;;;;;;;;27.71;43.23;95166.72;4997561;28;7013;-60
2023/10/05 08:34:00;;;;;;;;;;;;;;;27.72;43.43;95170.97;5043656;28;9417;-60
2023/10/05 08:36:55;;;;;;;;;;;;;;;27.73;43.30;95164.19;5017119;28;7192;-60
2023/10/05 08:39:53;;;;;;;;;;;;;;;27.72;43.30;95170.97;5013498;28;8765;-60
2023/10/05 08:42:30;;;;;;;;;;;;;;;27.71;43.04;95164.69;5016273;28;7058;-60
2023/10/05 08:44:56;;;;;;;;;;;;;;;27.72;43.28;95168.22;5017512;28;7179;-60
2023/10/05 08:47:27;;;;;;;;;;;;;;;27.72;43.46;95165.44;5017222;28;7004;-60
2023/10/05 08:49:55;;;;;;;;;;;;;;;27.72;43.18;95171.75;5015484;28;7258;-60
2023/10/05 08:52:23;;;;;;;;;;;;;;;27.72;43.10;95168.22;5006202;28;6989;-60
2023/10/05 08:54:51;;;;;;;;;;;;;;;27.73;43.07;95172.50;5013034;28;8792;-60
2023/10/05 08:57:18;;;;;;;;;;;;;;;27.72;43.52;95173.75;5030573;28;7206;-60
2023/10/05 09:00:14;;;;;;;;;;;;;;;27.75;42.78;95189.31;5011509;28;9457;-60
2023/10/05 09:02:41;;;;;;;;;;;;;;;27.71;43.20;95186.06;5016320;28;6997;-60
2023/10/05 09:05:24;;;;;;;;;;;;;;;27.74;43.17;95183.03;5016931;28;7258;-60
2023/10/05 09:08:07;;;;;;;;;;;;;;;27.75;42.87;95178.28;5040746;28;9009;-60
2023/10/05 09:10:42;;;;;;;;;;;;;;;27.75;42.72;95189.31;5029514;28;7521;-60
2023/10/05 09:13:13;;;;;;;;;;;;;;;27.76;43.17;95186.03;5049042;28;8613;-60
2023/10/05 09:15:51;;;;;;;;;;;;;;;27.76;43.72;95190.81;5063926;28;7075;-59
2023/10/05 09:18:25;;;;;;;;;;;;;;;27.73;43.08;95187.03;5048899;28;6975;-60
2023/10/05 09:20:55;;;;;;;;;;;;;;;27.76;43.21;95190.81;5058274;28;7057;-60
2023/10/05 09:23:33;;;;;;;;;;;;;;;27.76;43.09;95197.09;5069516;28;7233;-60
2023/10/05 09:26:33;;;;;;;;;;;;;;;27.77;42.85;95193.09;5075522;28;9189;-60
2023/10/05 09:29:39;;;;;;;;;;;;;;;27.77;43.34;95198.63;5050797;28;7060;-60
2023/10/05 09:32:11;;;;;;;;;;;;;;;27.78;43.49;95200.13;5037922;28;9235;-60
2023/10/05 09:34:41;;;;;;;;;;;;;;;27.78;43.04;95207.66;5015959;28;8863;-62
2023/10/05 09:37:09;;;;;;;;;;;;;;;27.79;42.79;95207.16;5038519;28;7223;-62
2023/10/05 09:39:44;;;;;;;;;;;;;;;27.80;43.18;95194.06;5014623;28;7212;-62
2023/10/05 09:42:25;;;;;;;;;;;;;;;27.81;42.84;95203.88;5027309;28;7227;-62
2023/10/05 09:44:53;;;;;;;;;;;;;;;27.79;43.14;95190.56;5051914;28;8854;-62
2023/10/05 09:47:38;;;;;;;;;;;;;;;27.77;42.93;95190.31;5031695;28;9203;-62
2023/10/05 09:50:22;;;;;;;;;;;;;;;27.79;42.89;95198.88;5035358;28;7200;-62
2023/10/05 09:52:59;;;;;;;;;;;;;;;27.79;42.85;95196.09;5031808;28;9432;-62
2023/10/05 09:55:40;;;;;;;;;;;;;;;27.80;43.07;95194.06;5052118;28;7249;-62
2023/10/05 09:58:18;;;;;;;;;;;;;;;27.81;42.66;95188.06;5031770;28;8965;-62
2023/10/05 10:00:56;;;;;;;;;;;;;;;27.81;43.07;95192.81;5050160;28;9832;-62
2023/10/05 10:03:31;;;;;;;;;;;;;;;27.82;43.15;95191.56;5036970;28;9545;-62
2023/10/05 10:06:10;;;;;;;;;;;;;;;27.80;42.68;95186.53;5072607;28;7175;-62
2023/10/05 10:08:57;;;;;;;;;;;;;;;27.81;42.59;95188.06;5044471;28;7229;-62
2023/10/05 10:11:50;;;;;;;;;;;;;;;27.80;42.67;95186.53;5054346;28;8748;-62
2023/10/05 10:14:50;;;;;;;;;;;;;;;27.80;42.86;95169.94;5027087;28;7145;-62
2023/10/05 10:17:25;;;;;;;;;;;;;;;27.83;42.64;95170.94;4945400;28;7598;-62
2023/10/05 10:20:58;;;;;;;;;;;;;;;27.82;42.54;95163.94;4972182;28;7318;-62
2023/10/05 10:23:21;;;;;;;;;;;;;;;27.81;43.03;95151.34;4963925;28;9913;-62
2023/10/05 10:25:53;;;;;;;;;;;;;;;27.81;42.91;95137.53;4971170;28;7078;-62
2023/10/05 10:31:30;;;;;;;;;;;;;;;27.82;42.59;95139.06;4961515;28;9593;-62
2023/10/05 10:34:32;;;;;;;;;;;;;;;27.86;42.97;95143.03;4972775;28;9024;-62
2023/10/05 10:37:10;;;;;;;;;;;;;;;27.86;42.69;95137.50;4960291;28;7279;-62
2023/10/05 10:39:37;;;;;;;;;;;;;;;27.88;42.76;95137.78;4973744;28;9585;-62
2023/10/05 10:42:18;;;;;;;;;;;;;;;27.85;42.79;95138.78;4947707;28;9712;-62
2023/10/05 10:47:15;;;;;;;;;;;;;;;27.88;42.91;95131.50;4968318;28;7234;-60
2023/10/05 10:50:15;;;;;;;;;;;;;;;27.89;42.95;95124.69;4970079;28;7245;-59
2023/10/05 10:52:58;;;;;;;;;;;;;;;27.90;42.78;95134.50;5014126;28;9003;-60
2023/10/05 10:55:45;;;;;;;;;;;;;;;27.91;43.20;95125.69;5053377;28;7520;-59
2023/10/05 10:58:24;;;;;;;;;;;;;;;27.94;42.74;95134.97;5057858;28;7330;-60
2023/10/05 11:01:03;;;;;;;;;;;;;;;27.94;42.23;95132.22;5082467;28;9048;-60
2023/10/05 11:03:32;;;;;;;;;;;;;;;27.93;42.45;95119.63;5065883;28;9234;-60
2023/10/05 11:06:04;;;;;;;;;;;;;;;27.92;41.97;95127.19;5054264;28;9690;-60
2023/10/05 11:08:49;;;;;;;;;;;;;;;27.95;42.40;95122.66;5068044;28;6965;-60
2023/10/05 11:11:16;;;;;;;;;;;;;;;27.95;42.93;95119.91;5054185;28;7065;-59
2023/10/05 11:13:55;;;;;;;;;;;;;;;27.98;42.83;95125.19;5053275;28;9240;-60
2023/10/05 11:16:32;;;;;;;;;;;;;;;27.99;43.27;95125.94;5052468;28;7326;-60
2023/10/05 11:19:00;;;;;;;;;;;;;;;27.98;42.69;95119.66;5066228;28;9081;-60
2023/10/05 11:21:43;;;;;;;;;;;;;;;28.03;42.61;95121.66;5070198;28;9035;-60
2023/10/05 11:24:10;;;;;;;;;;;;;;;28.03;42.20;95132.72;5067430;28;8824;-60
2023/10/05 11:29:29;;;;;;;;;;;;;;;28.05;42.69;95137.72;5050231;28;9017;-60
2023/10/05 11:32:10;;;;;;;;;;;;;;;28.05;42.39;95140.50;5054234;28;6995;-60
2023/10/05 11:34:39;;;;;;;;;;;;;;;28.07;42.96;95151.78;5045763;28;8865;-60
2023/10/05 11:37:17;;;;;;;;;;;;;;;28.05;42.60;95135.72;5049130;28;7424;-60
2023/10/05 11:39:50;;;;;;;;;;;;;;;28.07;42.38;95147.03;5050912;28;7709;-60
2023/10/05 11:42:24;;;;;;;;;;;;;;;28.10;42.76;95148.03;5054338;28;9296;-60
2023/10/05 11:44:57;;;;;;;;;;;;;;;28.11;42.97;95152.28;5052568;28;7279;-60
2023/10/05 11:47:35;;;;;;;;;;;;;;;28.09;43.03;95138.22;5071334;28;9030;-60
2023/10/05 11:52:56;;;;;;;;;;;;;;;28.10;42.32;95137.69;5067041;28;9268;-56
2023/10/05 11:55:22;;;;;;;;;;;;;;;28.12;42.62;95135.16;5059498;28;7108;-62
2023/10/05 11:57:56;;;;;;;;;;;;;;;28.13;42.89;95130.38;5076362;28;7171;-62
2023/10/05 12:00:31;;;;;;;;;;;;;;;28.14;42.37;95134.69;5075425;28;9155;-61
2023/10/05 12:02:59;;;;;;;;;;;;;;;28.15;42.75;95125.09;5051350;28;7168;-61
2023/10/05 12:05:28;;;;;;;;;;;;;;;28.15;42.71;95134.16;5067377;28;6993;-62
2023/10/05 12:08:06;;;;;;;;;;;;;;;28.13;42.72;95135.91;5054378;28;6989;-62
2023/10/05 12:10:35;;;;;;;;;;;;;;;28.13;42.52;95127.63;5059157;28;6972;-61
2023/10/05 12:13:04;;;;;;;;;;;;;;;28.16;42.38;95123.84;5053105;28;7850;-62
2023/10/05 12:16:14;;;;;;;;;;;;;;;28.16;42.79;95116.31;5059248;28;9110;-61
2023/10/05 12:18:42;;;;;;;;;;;;;;;28.16;42.98;95118.31;5073687;28;7259;-62
2023/10/05 12:21:19;;;;;;;;;;;;;;;28.19;42.88;95117.28;5053809;28;7444;-62
2023/10/05 12:23:47;;;;;;;;;;;;;;;28.21;42.18;95120.28;5076258;28;9038;-61
2023/10/05 12:26:28;;;;;;;;;;;;;;;28.22;42.72;95107.97;5056782;28;9027;-61
2023/10/05 12:28:54;;;;;;;;;;;;;;;28.22;42.50;95107.97;5084949;28;7156;-61
2023/10/05 12:31:23;;;;;;;;;;;;;;;28.27;42.00;95115.50;5095106;28;7258;-60
2023/10/05 12:33:54;;;;;;;;;;;;;;;28.26;42.94;95113.97;5052395;28;7058;-62
2023/10/05 12:36:51;;;;;;;;;;;;;;;28.28;42.96;95114.22;5074050;28;9018;-61
2023/10/05 12:39:20;;;;;;;;;;;;;;;28.33;42.04;95121.75;5040348;28;7283;-61
2023/10/05 12:41:48;;;;;;;;;;;;;;;28.32;42.48;95115.44;5017971;28;8780;-61
2023/10/05 12:44:23;;;;;;;;;;;;;;;28.31;42.03;95110.44;5043895;28;7211;-62
2023/10/05 12:46:49;;;;;;;;;;;;;;;28.35;42.43;95108.16;5036110;28;7377;-61
2023/10/05 12:49:33;;;;;;;;;;;;;;;28.35;41.97;95108.91;5016489;28;7012;-61
2023/10/05 12:52:52;;;;;;;;;;;;;;;28.37;42.41;95105.63;5024651;28;9436;-61
2023/10/05 12:55:42;;;;;;;;;;;;;;;28.41;42.66;95113.63;4959384;28;9262;-61
2023/10/05 12:58:09;;;;;;;;;;;;;;;28.38;42.25;95105.09;4962015;28;7283;-62
2023/10/05 13:01:07;;;;;;;;;;;;;;;28.45;42.68;95120.41;4960903;28;7078;-62
2023/10/05 13:03:44;;;;;;;;;;;;;;;28.44;41.94;95124.44;4973390;28;7056;-62
2023/10/05 13:06:10;;;;;;;;;;;;;;;28.43;42.03;95124.97;4958600;28;7925;-62
2023/10/05 13:08:43;;;;;;;;;;;;;;;28.43;42.14;95124.97;4970884;28;7481;-61
2023/10/05 13:11:39;;;;;;;;;;;;;;;28.44;42.12;95126.47;4975952;28;9491;-62
2023/10/05 13:14:18;;;;;;;;;;;;;;;28.45;42.17;95139.78;4934872;29;7017;-62
2023/10/05 13:17:17;;;;;;;;;;;;;;;28.45;42.17;95131.47;4931768;29;7224;-61
2023/10/05 13:19:51;;;;;;;;;;;;;;;28.49;42.93;95134.00;4897819;29;8861;-61
2023/10/05 13:22:19;;;;;;;;;;;;;;;28.48;42.41;95133.22;4899927;29;9258;-62
2023/10/05 13:24:45;;;;;;;;;;;;;;;28.49;42.09;95131.22;4917920;29;7305;-62
2023/10/05 13:27:20;;;;;;;;;;;;;;;28.48;41.83;95126.94;4915650;29;7361;-62
2023/10/05 13:29:48;;;;;;;;;;;;;;;28.52;42.52;95133.69;4899279;28;9019;-61
2023/10/05 13:32:14;;;;;;;;;;;;;;;28.54;42.35;95131.16;4938263;28;7280;-62
2023/10/05 13:34:45;;;;;;;;;;;;;;;28.53;42.93;95126.16;4931602;28;9022;-62
2023/10/05 13:37:13;;;;;;;;;;;;;;;28.55;42.67;95137.47;4937561;28;7840;-62
2023/10/05 13:39:44;;;;;;;;;;;;;;;28.55;42.85;95129.91;4965718;28;7174;-61
2023/10/05 13:42:25;;;;;;;;;;;;;;;28.61;42.64;95127.88;4967767;28;9058;-61
2023/10/05 13:44:55;;;;;;;;;;;;;;;28.62;41.88;95112.81;4965522;28;6991;-61
2023/10/05 13:47:24;;;;;;;;;;;;;;;28.63;42.98;95108.75;4952907;28;7007;-61
2023/10/05 13:49:55;;;;;;;;;;;;;;;28.64;42.46;95107.50;4963838;28;7798;-61
2023/10/05 13:52:33;;;;;;;;;;;;;;;28.68;42.29;95107.97;4941898;28;8832;-61
2023/10/05 13:55:28;;;;;;;;;;;;;;;28.71;42.69;95118.00;4990911;28;7348;-61
2023/10/05 13:58:00;;;;;;;;;;;;;;;28.70;42.76;95108.19;5012781;28;7479;-61
2023/10/05 14:00:29;;;;;;;;;;;;;;;28.76;41.79;95125.53;5014654;28;7327;-61
2023/10/05 14:03:12;;;;;;;;;;;;;;;28.77;42.07;95124.25;5015190;28;9080;-62
2023/10/05 14:05:50;;;;;;;;;;;;;;;28.82;42.72;95123.44;5024378;28;7242;-62
2023/10/05 14:08:19;;;;;;;;;;;;;;;28.81;41.88;95126.75;5026361;28;9069;-62
2023/10/05 14:11:18;;;;;;;;;;;;;;;28.81;41.80;95129.50;5014908;28;9168;-62
2023/10/05 14:13:52;;;;;;;;;;;;;;;28.81;42.08;95135.81;4953907;28;6992;-55
2023/10/05 14:16:28;;;;;;;;;;;;;;;28.78;42.54;95128.53;4961830;28;6981;-54
2023/10/05 14:18:55;;;;;;;;;;;;;;;28.77;42.51;95120.75;4953517;28;7179;-54
2023/10/05 14:21:25;;;;;;;;;;;;;;;28.73;42.05;95115.47;4952863;28;7147;-54